Time;durP1;ratioP1;P1;durP2;ratioP2;P2;SDS_P1;SDS_P2;PMS_P1;PMS_P2;Temp;Humidity;BMP_temperature;BMP_pressure;BME280_temperature;BME280_humidity;BME280_pressure;Samples;Min_cycle;Max_cycle;Signal;HPM_P1;HPM_P2
2022/07/25 00:00:41;;;;;;;8.30;4.90;;;;;;;26.69;47.12;100162.52;117298;1186;22924;-59
2022/07/25 00:03:08;;;;;;;8.50;5.00;;;;;;;26.67;47.13;100157.61;117260;1182;24190;-60
2022/07/25 00:05:36;;;;;;;7.50;5.00;;;;;;;26.65;47.09;100158.36;117134;1182;23445;-58
2022/07/25 00:08:04;;;;;;;8.10;4.70;;;;;;;26.61;47.10;100154.88;117281;1182;22063;-60
2022/07/25 00:10:31;;;;;;;10.20;4.40;;;;;;;26.57;47.10;100155.73;117354;1185;22189;-58
2022/07/25 00:12:58;;;;;;;9.60;4.40;;;;;;;26.53;46.97;100159.27;117286;1185;23576;-60
2022/07/25 00:15:25;;;;;;;8.40;4.80;;;;;;;26.50;47.14;100161.00;117359;1186;21867;-60
2022/07/25 00:17:52;;;;;;;11.00;5.00;;;;;;;26.49;47.25;100165.08;117083;1185;22606;-60
2022/07/25 00:20:19;;;;;;;9.10;4.40;;;;;;;26.49;47.11;100164.38;117142;1186;21854;-58
2022/07/25 00:22:47;;;;;;;10.40;4.50;;;;;;;26.48;47.07;100160.98;117088;1185;22922;-60
2022/07/25 00:25:14;;;;;;;6.40;5.30;;;;;;;26.49;47.08;100158.04;117024;1188;23851;-60
2022/07/25 00:27:41;;;;;;;10.90;5.30;;;;;;;26.49;47.03;100157.70;117247;1186;21885;-60
2022/07/25 00:30:09;;;;;;;7.50;5.20;;;;;;;26.48;47.18;100159.02;117287;1182;22989;-58
2022/07/25 00:32:36;;;;;;;8.60;5.10;;;;;;;26.48;47.23;100157.07;117316;1186;21970;-58
2022/07/25 00:35:04;;;;;;;8.00;5.00;;;;;;;26.48;47.27;100157.92;117136;1185;22807;-58
2022/07/25 00:37:31;;;;;;;8.80;5.40;;;;;;;26.47;47.37;100155.70;117133;1183;22998;-60
2022/07/25 00:39:58;;;;;;;11.90;5.90;;;;;;;26.44;47.38;100151.61;117051;1185;21928;-58
2022/07/25 00:42:25;;;;;;;7.00;4.60;;;;;;;26.41;47.35;100153.46;117175;1185;21957;-58
2022/07/25 00:44:52;;;;;;;7.30;4.70;;;;;;;26.38;47.41;100149.41;117323;1182;22171;-60
2022/07/25 00:47:19;;;;;;;7.00;4.40;;;;;;;26.34;47.41;100151.52;117216;1189;21860;-58
2022/07/25 00:49:46;;;;;;;7.10;5.00;;;;;;;26.31;47.41;100158.64;117285;1186;21855;-58
2022/07/25 00:52:13;;;;;;;11.30;5.00;;;;;;;26.27;47.47;100161.95;117254;1186;23593;-59
2022/07/25 00:54:40;;;;;;;8.00;4.40;;;;;;;26.23;47.44;100165.69;117203;1185;22924;-60
2022/07/25 00:57:07;;;;;;;10.20;5.60;;;;;;;26.21;47.44;100173.10;117312;1185;21888;-60
2022/07/25 00:59:34;;;;;;;7.40;4.70;;;;;;;26.19;47.30;100177.76;117137;1189;21893;-61
2022/07/25 01:02:01;;;;;;;7.30;4.50;;;;;;;26.15;47.36;100175.02;117310;1185;22982;-58
2022/07/25 01:04:30;;;;;;;5.80;3.60;;;;;;;26.12;47.23;100181.01;116945;1188;21853;-60
2022/07/25 01:06:57;;;;;;;10.00;4.80;;;;;;;26.10;47.17;100180.92;117251;1183;23644;-60
2022/07/25 01:09:26;;;;;;;7.40;4.10;;;;;;;26.09;47.07;100180.68;117118;1183;21980;-58
2022/07/25 01:11:53;;;;;;;6.30;4.00;;;;;;;26.07;47.09;100182.23;117009;1185;22922;-60
2022/07/25 01:14:21;;;;;;;9.40;4.30;;;;;;;26.07;47.02;100187.08;117113;1187;21905;-59
2022/07/25 01:16:48;;;;;;;7.50;4.60;;;;;;;26.06;47.07;100189.19;117130;1185;23446;-61
2022/07/25 01:19:16;;;;;;;6.60;4.30;;;;;;;26.04;46.96;100191.92;117254;1182;21868;-60
2022/07/25 01:21:43;;;;;;;7.00;4.40;;;;;;;26.01;46.98;100191.55;117266;1182;23550;-58
2022/07/25 01:24:11;;;;;;;7.30;4.20;;;;;;;26.01;46.96;100189.48;117018;1188;21958;-58
2022/07/25 01:26:38;;;;;;;7.90;4.70;;;;;;;25.99;47.02;100195.48;117045;1183;21856;-58
2022/07/25 01:29:05;;;;;;;7.80;4.20;;;;;;;25.97;46.95;100198.30;117184;1186;22319;-58
2022/07/25 01:31:32;;;;;;;6.40;4.40;;;;;;;25.96;46.98;100202.17;117055;1188;21875;-58
2022/07/25 01:33:59;;;;;;;5.70;4.00;;;;;;;25.94;47.03;100202.69;117049;1189;21867;-60
2022/07/25 01:36:27;;;;;;;7.90;4.20;;;;;;;25.93;47.00;100204.98;117074;1182;21869;-60
2022/07/25 01:38:55;;;;;;;6.80;4.30;;;;;;;25.91;47.06;100207.27;117003;1188;22808;-58
2022/07/25 01:41:22;;;;;;;7.80;4.60;;;;;;;25.90;47.05;100203.05;117161;1185;21898;-58
2022/07/25 01:43:49;;;;;;;6.10;4.10;;;;;;;25.88;47.02;100204.80;117279;1186;21861;-59
2022/07/25 01:46:16;;;;;;;11.90;4.80;;;;;;;25.87;47.03;100202.94;117328;1185;21854;-58
2022/07/25 01:48:43;;;;;;;8.20;4.50;;;;;;;25.86;46.98;100204.83;117160;1185;21910;-60
2022/07/25 01:51:10;;;;;;;7.80;4.40;;;;;;;25.84;47.11;100206.55;117014;1189;21885;-60
2022/07/25 01:53:38;;;;;;;6.00;3.90;;;;;;;25.82;47.18;100203.11;117086;1185;21855;-59
2022/07/25 01:56:08;;;;;;;6.70;4.20;;;;;;;25.81;47.16;100207.88;116980;1188;21854;-60
2022/07/25 01:58:37;;;;;;;5.40;4.20;;;;;;;25.79;47.32;100209.65;117155;1188;21918;-58
2022/07/25 02:01:04;;;;;;;5.80;3.80;;;;;;;25.78;47.19;100209.22;117300;1186;22323;-60
2022/07/25 02:03:32;;;;;;;9.40;4.70;;;;;;;25.79;47.26;100215.63;117141;1187;24142;-58
2022/07/25 02:06:01;;;;;;;7.70;4.40;;;;;;;25.79;47.24;100215.94;117062;1183;22658;-59
2022/07/25 02:08:29;;;;;;;6.70;4.00;;;;;;;25.79;47.08;100213.04;117303;1185;22650;-58
2022/07/25 02:10:56;;;;;;;9.10;4.80;;;;;;;25.75;47.39;100216.05;117190;1183;22921;-60
2022/07/25 02:13:23;;;;;;;5.60;4.10;;;;;;;25.67;47.57;100216.34;117275;1185;21968;-60
2022/07/25 02:15:51;;;;;;;6.20;4.20;;;;;;;25.64;47.65;100217.83;117018;1188;22643;-60
2022/07/25 02:18:18;;;;;;;7.90;4.30;;;;;;;25.61;47.79;100217.70;117028;1188;22720;-60
2022/07/25 02:20:45;;;;;;;7.80;5.00;;;;;;;25.59;47.86;100219.16;117304;1186;21844;-60
2022/07/25 02:23:13;;;;;;;5.90;4.70;;;;;;;25.57;47.85;100219.66;117105;1182;22626;-60
2022/07/25 02:25:40;;;;;;;6.00;5.20;;;;;;;25.56;47.98;100223.36;117142;1188;21949;-61
2022/07/25 02:28:07;;;;;;;6.50;4.60;;;;;;;25.54;48.01;100226.13;117227;1183;24295;-58
2022/07/25 02:30:36;;;;;;;7.60;4.80;;;;;;;25.53;48.10;100225.66;116984;1188;21858;-61
2022/07/25 02:33:04;;;;;;;6.90;4.80;;;;;;;25.52;48.30;100228.46;117125;1185;21845;-61
2022/07/25 02:35:31;;;;;;;7.40;4.60;;;;;;;25.51;48.28;100231.39;117108;1186;22920;-60
2022/07/25 02:37:58;;;;;;;6.50;4.80;;;;;;;25.51;48.30;100233.34;116987;1186;23573;-58
2022/07/25 02:40:26;;;;;;;7.60;5.20;;;;;;;25.52;48.22;100232.54;117172;1186;22993;-58
2022/07/25 02:42:53;;;;;;;11.30;4.90;;;;;;;25.54;48.33;100238.20;117240;1183;21845;-58
2022/07/25 02:45:19;;;;;;;6.60;5.00;;;;;;;25.53;48.39;100237.14;117094;1188;22874;-59
2022/07/25 02:47:46;;;;;;;5.60;4.40;;;;;;;25.51;48.41;100242.38;116952;1185;22944;-58
2022/07/25 02:50:14;;;;;;;6.90;4.90;;;;;;;25.49;48.38;100245.39;117114;1182;22879;-58
2022/07/25 02:52:42;;;;;;;8.10;4.70;;;;;;;25.49;48.48;100249.20;116974;1188;21871;-58
2022/07/25 02:55:09;;;;;;;6.70;4.20;;;;;;;25.49;48.43;100251.31;117066;1185;21854;-58
2022/07/25 02:57:36;;;;;;;7.80;4.80;;;;;;;25.48;48.44;100250.08;117320;1186;22626;-60
2022/07/25 03:00:05;;;;;;;8.60;4.90;;;;;;;25.49;48.51;100249.52;117243;1181;21962;-58
2022/07/25 03:02:32;;;;;;;7.00;4.60;;;;;;;25.50;48.51;100250.52;117242;1185;21851;-61
2022/07/25 03:04:59;;;;;;;8.50;4.70;;;;;;;25.51;48.51;100249.92;116995;1186;21857;-58
2022/07/25 03:07:28;;;;;;;7.50;4.40;;;;;;;25.52;48.44;100248.23;117006;1181;21960;-61
2022/07/25 03:09:55;;;;;;;9.00;4.70;;;;;;;25.52;48.61;100247.67;117138;1182;21925;-61
2022/07/25 03:12:22;;;;;;;9.50;5.20;;;;;;;25.50;48.74;100248.33;117296;1186;22908;-60
2022/07/25 03:14:49;;;;;;;8.30;5.30;;;;;;;25.50;48.67;100250.32;117329;1182;24159;-60
2022/07/25 03:17:16;;;;;;;14.20;6.00;;;;;;;25.50;48.82;100249.09;117255;1186;23557;-57
2022/07/25 03:19:43;;;;;;;6.40;4.80;;;;;;;25.48;48.92;100251.06;117278;1182;21855;-60
2022/07/25 03:22:10;;;;;;;8.10;4.60;;;;;;;25.46;48.80;100252.98;117083;1188;21855;-58
2022/07/25 03:24:37;;;;;;;8.10;4.80;;;;;;;25.47;48.82;100252.90;117079;1185;24161;-58
2022/07/25 03:27:04;;;;;;;7.70;4.50;;;;;;;25.48;49.06;100255.70;117098;1188;23686;-61
2022/07/25 03:29:31;;;;;;;13.00;5.20;;;;;;;25.49;49.18;100254.55;117038;1185;22626;-58
2022/07/25 03:31:59;;;;;;;7.70;4.50;;;;;;;25.51;49.18;100256.20;117258;1186;21855;-58
2022/07/25 03:34:26;;;;;;;10.60;4.60;;;;;;;25.54;49.08;100260.45;117332;1182;22973;-58
2022/07/25 03:36:54;;;;;;;6.50;4.70;;;;;;;25.56;49.35;100260.86;117091;1189;21872;-58
2022/07/25 03:39:21;;;;;;;7.10;5.50;;;;;;;25.55;49.37;100259.67;117031;1190;23628;-60
2022/07/25 03:41:48;;;;;;;6.40;4.70;;;;;;;25.56;49.19;100252.02;117026;1188;22863;-58
2022/07/25 03:44:15;;;;;;;8.00;5.10;;;;;;;25.61;49.34;100247.21;117392;1185;22859;-58
2022/07/25 03:46:42;;;;;;;8.90;5.20;;;;;;;25.65;49.39;100248.30;117059;1188;21923;-60
2022/07/25 03:49:09;;;;;;;7.80;5.70;;;;;;;25.67;49.74;100249.20;117112;1183;21938;-60
2022/07/25 03:51:36;;;;;;;13.40;5.70;;;;;;;25.70;49.41;100249.13;117309;1185;23448;-61
2022/07/25 03:54:04;;;;;;;9.30;6.40;;;;;;;25.74;49.46;100253.20;117100;1188;22945;-59
2022/07/25 03:56:39;;;;;;;8.90;5.50;;;;;;;25.75;49.83;100255.59;116992;1187;22878;-58
2022/07/25 03:59:11;;;;;;;9.10;5.50;;;;;;;25.75;49.95;100259.77;117044;1185;22941;-59
2022/07/25 04:01:38;;;;;;;11.20;5.50;;;;;;;25.70;50.33;100258.66;117298;1186;21842;-60
2022/07/25 04:04:05;;;;;;;7.60;6.00;;;;;;;25.65;50.69;100262.30;116969;1188;21849;-61
2022/07/25 04:06:34;;;;;;;8.40;6.10;;;;;;;25.63;50.41;100264.62;117114;1182;22921;-60
2022/07/25 04:09:03;;;;;;;9.70;5.80;;;;;;;25.64;50.58;100259.50;117110;1185;21843;-61
2022/07/25 04:11:30;;;;;;;8.40;5.90;;;;;;;25.68;50.39;100256.18;117091;1188;21856;-58
2022/07/25 04:13:58;;;;;;;9.10;6.10;;;;;;;25.71;50.63;100256.63;117035;1185;24240;-59
2022/07/25 04:16:25;;;;;;;10.80;6.40;;;;;;;25.69;50.90;100261.45;117276;1185;23758;-60
2022/07/25 04:18:54;;;;;;;12.30;6.00;;;;;;;25.67;50.24;100262.18;117056;1186;21854;-60
2022/07/25 04:21:23;;;;;;;15.40;6.20;;;;;;;25.75;49.99;100263.84;117151;1185;21845;-60
2022/07/25 04:23:50;;;;;;;12.80;6.50;;;;;;;25.90;50.01;100263.09;117301;1186;22376;-59
2022/07/25 04:26:17;;;;;;;7.70;6.00;;;;;;;26.04;50.17;100265.04;117029;1185;21974;-58
2022/07/25 04:28:44;;;;;;;6.90;6.10;;;;;;;26.12;50.20;100266.19;117069;1188;23554;-58
2022/07/25 04:31:11;;;;;;;9.70;6.30;;;;;;;26.16;50.13;100267.52;117078;1183;22094;-58
2022/07/25 04:33:39;;;;;;;18.70;7.10;;;;;;;26.20;50.67;100265.40;117112;1188;21957;-57
2022/07/25 04:36:06;;;;;;;13.50;7.00;;;;;;;26.25;50.32;100268.26;117037;1180;22929;-58
2022/07/25 04:38:34;;;;;;;10.90;6.10;;;;;;;26.28;50.44;100263.49;117252;1182;21861;-61
2022/07/25 04:41:02;;;;;;;15.50;6.80;;;;;;;26.35;50.02;100263.29;117292;1186;21882;-57
2022/07/25 04:43:29;;;;;;;13.10;6.50;;;;;;;26.47;50.29;100266.47;117162;1187;22655;-61
2022/07/25 04:45:56;;;;;;;9.30;6.70;;;;;;;26.60;50.19;100268.54;117039;1183;24064;-57
2022/07/25 04:48:23;;;;;;;8.20;7.10;;;;;;;26.69;50.16;100267.39;117081;1185;23451;-56
2022/07/25 04:50:51;;;;;;;21.60;8.20;;;;;;;26.77;50.03;100267.81;117447;1186;21960;-60
2022/07/25 04:53:18;;;;;;;8.70;6.40;;;;;;;26.85;50.09;100268.66;117275;1186;23611;-60
2022/07/25 04:55:45;;;;;;;9.00;6.60;;;;;;;26.91;50.13;100268.39;117199;1186;22877;-61
2022/07/25 04:58:13;;;;;;;7.80;6.40;;;;;;;26.94;49.97;100271.36;117857;1187;21960;-57
2022/07/25 05:00:40;;;;;;;8.30;6.90;;;;;;;26.96;50.08;100271.88;117108;1185;23550;-61
2022/07/25 05:03:07;;;;;;;7.80;7.00;;;;;;;27.00;49.91;100272.65;116994;1188;21860;-57
2022/07/25 05:05:34;;;;;;;7.30;6.60;;;;;;;27.04;49.92;100277.70;117090;1185;21867;-60
2022/07/25 05:08:02;;;;;;;7.50;6.40;;;;;;;27.10;49.99;100277.21;117117;1185;23563;-61
2022/07/25 05:10:29;;;;;;;9.90;6.80;;;;;;;27.21;50.01;100276.89;117110;1186;24151;-60
2022/07/25 05:12:56;;;;;;;9.30;7.20;;;;;;;27.33;49.78;100277.86;117108;1185;21855;-57
2022/07/25 05:15:23;;;;;;;7.80;6.90;;;;;;;27.40;49.69;100273.43;117031;1181;23631;-57
2022/07/25 05:17:50;;;;;;;10.20;6.70;;;;;;;27.46;49.76;100281.80;117312;1185;23696;-60
2022/07/25 05:20:17;;;;;;;7.70;6.80;;;;;;;27.54;49.63;100283.86;117012;1186;24168;-59
2022/07/25 05:22:44;;;;;;;8.50;6.80;;;;;;;27.62;49.42;100286.55;117153;1185;23003;-56
2022/07/25 05:25:11;;;;;;;7.10;6.40;;;;;;;27.73;49.29;100280.45;117103;1186;22613;-61
2022/07/25 05:27:39;;;;;;;7.30;6.50;;;;;;;27.83;49.17;100284.58;117097;1185;22329;-60
2022/07/25 05:30:08;;;;;;;8.80;6.70;;;;;;;27.91;49.01;100284.23;117343;1183;21854;-60
2022/07/25 05:32:35;;;;;;;8.10;7.00;;;;;;;27.96;48.95;100290.30;116989;1185;21848;-61
2022/07/25 05:35:03;;;;;;;7.30;6.60;;;;;;;27.99;48.90;100289.73;117075;1186;23451;-61
2022/07/25 05:37:30;;;;;;;7.20;6.50;;;;;;;28.01;48.71;100287.50;117038;1188;22846;-57
2022/07/25 05:39:57;;;;;;;8.60;7.10;;;;;;;28.08;48.80;100290.00;117135;1186;22921;-56
2022/07/25 05:42:25;;;;;;;9.20;6.90;;;;;;;28.17;48.58;100286.69;117313;1186;22873;-57
2022/07/25 05:44:52;;;;;;;8.10;6.40;;;;;;;28.30;48.65;100287.60;117042;1188;22928;-62
2022/07/25 05:47:19;;;;;;;7.20;6.50;;;;;;;28.41;48.44;100282.09;117229;1185;22310;-57
2022/07/25 05:49:46;;;;;;;7.40;6.30;;;;;;;28.50;48.28;100282.71;117034;1189;21872;-57
2022/07/25 05:52:13;;;;;;;7.30;6.20;;;;;;;28.59;47.83;100282.69;117142;1183;21950;-57
2022/07/25 05:54:41;;;;;;;7.30;6.50;;;;;;;28.58;47.71;100283.27;117023;1187;22870;-61
2022/07/25 05:57:08;;;;;;;8.20;6.30;;;;;;;28.59;47.87;100282.26;117042;1188;22906;-61
2022/07/25 05:59:35;;;;;;;8.90;6.50;;;;;;;28.73;47.66;100285.60;117071;1189;21857;-61
2022/07/25 06:02:02;;;;;;;9.50;6.20;;;;;;;28.90;47.42;100280.59;117074;1188;23016;-57
2022/07/25 06:04:30;;;;;;;7.00;6.20;;;;;;;29.09;47.22;100276.40;116992;1188;21860;-57
2022/07/25 06:06:57;;;;;;;7.20;6.50;;;;;;;29.19;47.30;100276.00;117078;1182;21860;-57
2022/07/25 06:09:24;;;;;;;6.20;5.60;;;;;;;29.36;47.03;100276.63;117058;1186;22912;-57
2022/07/25 06:11:51;;;;;;;8.40;5.60;;;;;;;29.51;46.82;100274.02;117027;1182;22971;-61
2022/07/25 06:14:27;;;;;;;7.70;5.70;;;;;;;29.68;46.57;100271.32;117274;1183;21909;-60
2022/07/25 06:16:55;;;;;;;7.30;5.90;;;;;;;29.85;46.53;100274.08;117021;1182;21868;-62
2022/07/25 06:19:23;;;;;;;7.30;6.00;;;;;;;29.96;45.91;100270.07;117050;1183;21949;-61
2022/07/25 06:21:50;;;;;;;8.30;5.80;;;;;;;30.05;45.32;100266.94;117120;1188;22560;-57
2022/07/25 06:24:17;;;;;;;7.20;5.80;;;;;;;30.11;45.57;100265.56;117079;1188;22792;-61
2022/07/25 06:26:45;;;;;;;6.30;5.70;;;;;;;30.19;44.86;100266.14;117068;1185;23015;-62
2022/07/25 06:29:13;;;;;;;7.80;5.90;;;;;;;30.26;44.84;100264.65;117066;1182;22925;-57
2022/07/25 06:31:40;;;;;;;6.20;5.30;;;;;;;30.36;45.20;100257.03;117288;1185;24269;-61
2022/07/25 06:34:11;;;;;;;7.50;5.40;;;;;;;30.45;45.05;100255.21;117033;1188;21854;-61
2022/07/25 06:36:38;;;;;;;5.80;5.30;;;;;;;30.57;44.85;100255.53;117005;1186;22934;-61
2022/07/25 06:39:06;;;;;;;5.80;5.20;;;;;;;30.66;44.34;100250.63;116999;1187;22619;-61
2022/07/25 06:41:36;;;;;;;5.50;4.80;;;;;;;30.76;44.29;100251.70;117278;1189;22503;-57
2022/07/25 06:44:03;;;;;;;6.00;4.50;;;;;;;30.87;43.92;100248.63;117153;1187;21861;-58
2022/07/25 06:46:31;;;;;;;5.80;4.90;;;;;;;30.94;42.99;100246.96;117186;1187;21901;-61
2022/07/25 06:48:58;;;;;;;7.20;4.60;;;;;;;30.93;43.26;100245.63;117249;1182;21845;-56
2022/07/25 06:51:26;;;;;;;10.50;5.10;;;;;;;30.98;43.14;100247.27;117234;1185;22913;-61
2022/07/25 06:53:55;;;;;;;8.90;4.70;;;;;;;31.03;43.09;100245.73;117036;1188;21857;-62
2022/07/25 06:56:23;;;;;;;5.30;4.60;;;;;;;31.19;42.93;100246.87;117074;1182;21873;-62
2022/07/25 06:58:52;;;;;;;5.40;4.70;;;;;;;31.33;42.75;100247.67;117052;1182;23910;-62
2022/07/25 07:01:19;;;;;;;6.20;3.70;;;;;;;31.42;42.15;100247.40;117119;1182;22854;-59
2022/07/25 07:03:47;;;;;;;5.70;3.90;;;;;;;31.42;41.78;100242.34;116964;1186;21918;-64
2022/07/25 07:06:14;;;;;;;5.00;4.40;;;;;;;31.38;41.24;100239.86;117037;1183;22696;-61
2022/07/25 07:08:42;;;;;;;6.10;4.00;;;;;;;31.37;41.11;100246.47;117021;1189;21854;-57
2022/07/25 07:11:09;;;;;;;6.90;3.60;;;;;;;31.40;40.66;100244.90;117260;1186;21857;-57
2022/07/25 07:13:37;;;;;;;5.10;3.80;;;;;;;31.45;40.58;100238.19;117202;1186;21868;-57
2022/07/25 07:16:05;;;;;;;5.10;4.00;;;;;;;31.55;40.18;100234.51;117246;1185;23545;-61
2022/07/25 07:18:32;;;;;;;5.20;4.10;;;;;;;31.62;40.29;100234.82;117654;1186;21895;-60
2022/07/25 07:20:59;;;;;;;7.80;4.00;;;;;;;31.69;39.47;100235.23;117009;1183;22925;-56
2022/07/25 07:23:27;;;;;;;7.50;3.90;;;;;;;31.71;39.08;100231.70;117043;1188;22922;-61
2022/07/25 07:25:55;;;;;;;5.30;3.50;;;;;;;31.66;38.85;100236.45;117256;1185;22873;-57
2022/07/25 07:28:22;;;;;;;10.80;3.90;;;;;;;31.69;38.72;100238.47;117120;1183;22935;-57
2022/07/25 07:30:49;;;;;;;6.90;3.70;;;;;;;31.68;37.98;100242.38;117103;1183;21869;-56
2022/07/25 07:33:36;;;;;;;5.10;3.90;;;;;;;31.69;38.39;100247.15;116943;1188;21849;-59
2022/07/25 07:36:05;;;;;;;5.50;3.50;;;;;;;31.76;38.86;100246.91;117203;1186;21966;-59
2022/07/25 07:38:33;;;;;;;4.30;3.50;;;;;;;31.88;38.96;100246.67;116979;1184;21860;-58
2022/07/25 07:41:00;;;;;;;8.10;3.60;;;;;;;32.12;38.36;100247.13;117177;1188;21860;-61
2022/07/25 07:43:30;;;;;;;5.50;3.50;;;;;;;32.25;37.36;100250.23;116944;1185;22327;-58
2022/07/25 07:45:59;;;;;;;6.60;3.70;;;;;;;32.33;37.66;100248.34;117013;1188;22936;-61
2022/07/25 07:48:28;;;;;;;21.10;4.60;;;;;;;32.51;37.71;100249.55;117127;1188;21953;-59
2022/07/25 07:50:56;;;;;;;17.40;4.00;;;;;;;32.83;38.12;100250.45;117122;1183;21853;-61
2022/07/25 07:55:42;;;;;;;12.50;3.90;;;;;;;33.15;37.47;100244.62;117020;1189;21855;-63
2022/07/25 07:56:11;;;;;;;9.70;3.40;;;;;;;33.55;36.68;100247.08;117158;1185;21906;-61
2022/07/25 07:58:38;;;;;;;5.90;3.60;;;;;;;33.79;35.82;100243.69;117177;1189;21875;-63
2022/07/25 08:01:05;;;;;;;7.90;3.20;;;;;;;33.75;34.99;100246.58;117310;1186;24174;-62
2022/07/25 08:03:32;;;;;;;7.70;3.10;;;;;;;33.64;35.51;100242.10;117136;1187;21855;-64
2022/07/25 08:05:59;;;;;;;5.60;3.20;;;;;;;33.54;33.98;100244.40;117007;1188;22651;-61
2022/07/25 08:08:26;;;;;;;3.90;3.00;;;;;;;33.49;35.17;100248.56;117130;1186;22172;-62
2022/07/25 08:10:57;;;;;;;5.00;2.70;;;;;;;33.39;35.28;100242.54;117173;1189;22760;-60
2022/07/25 08:13:29;;;;;;;4.20;2.80;;;;;;;33.44;35.77;100237.92;116919;1183;23661;-60
2022/07/25 08:15:58;;;;;;;5.00;3.10;;;;;;;33.65;35.66;100233.33;117589;1187;24293;-63
2022/07/25 08:18:28;;;;;;;5.70;3.30;;;;;;;33.88;35.07;100232.33;117061;1186;22653;-62
2022/07/25 08:20:55;;;;;;;5.40;3.00;;;;;;;34.04;35.26;100227.89;116968;1186;22629;-62
2022/07/25 08:23:24;;;;;;;8.40;2.80;;;;;;;34.07;34.44;100227.33;117114;1187;22998;-62
2022/07/25 08:25:51;;;;;;;9.90;3.80;;;;;;;34.01;32.47;100227.65;116939;1188;21902;-60
2022/07/25 08:28:19;;;;;;;9.40;3.20;;;;;;;33.88;32.09;100227.40;117127;1189;21963;-60
2022/07/25 08:30:46;;;;;;;4.20;2.60;;;;;;;33.85;33.16;100231.77;116972;1188;23329;-62
2022/07/25 08:33:14;;;;;;;6.50;2.70;;;;;;;33.67;32.46;100231.74;116943;1188;21920;-61
2022/07/25 08:35:47;;;;;;;3.80;2.50;;;;;;;33.48;31.73;100231.89;117120;1187;23702;-60
2022/07/25 08:38:14;;;;;;;3.90;2.30;;;;;;;33.47;30.99;100235.14;116999;1189;21895;-60
2022/07/25 08:40:42;;;;;;;3.60;2.20;;;;;;;33.57;31.47;100232.59;117146;1183;21953;-59
2022/07/25 08:43:13;;;;;;;6.10;2.60;;;;;;;33.74;31.99;100231.26;116971;1189;23017;-59
2022/07/25 08:45:45;;;;;;;5.60;2.00;;;;;;;33.92;31.74;100228.59;117021;1183;22924;-60
2022/07/25 08:48:12;;;;;;;6.00;2.50;;;;;;;34.08;31.45;100230.26;116973;1186;22094;-61
2022/07/25 08:50:40;;;;;;;4.20;2.10;;;;;;;34.22;30.61;100233.54;117056;1183;21923;-58
2022/07/25 08:53:07;;;;;;;6.00;1.90;;;;;;;34.36;30.40;100230.20;117230;1182;22048;-61
2022/07/25 08:55:54;;;;;;;3.10;1.80;;;;;;;34.50;30.23;100225.64;116955;1188;21922;-61
2022/07/25 08:58:21;;;;;;;3.90;1.90;;;;;;;34.83;31.10;100221.88;117004;1187;24207;-59
2022/07/25 09:00:49;;;;;;;2.50;1.60;;;;;;;35.09;29.51;100220.98;117082;1182;22946;-63
2022/07/25 09:03:16;;;;;;;7.80;2.50;;;;;;;35.09;29.50;100224.52;117166;1186;24264;-61
2022/07/25 09:05:43;;;;;;;3.00;1.80;;;;;;;35.14;29.52;100225.14;117101;1182;23303;-61
2022/07/25 09:08:16;;;;;;;2.20;1.70;;;;;;;35.20;29.06;100223.35;117051;1185;23475;-61
2022/07/25 09:10:50;;;;;;;2.70;1.80;;;;;;;35.31;28.73;100223.61;116962;1188;23769;-61
2022/07/25 09:13:19;;;;;;;3.80;1.90;;;;;;;35.40;27.61;100228.01;117152;1186;21925;-61
2022/07/25 09:15:55;;;;;;;3.90;1.70;;;;;;;35.46;27.61;100221.13;117087;1186;22905;-60
2022/07/25 09:18:23;;;;;;;8.80;2.30;;;;;;;35.50;27.05;100216.11;117142;1182;23464;-65
2022/07/25 09:20:58;;;;;;;7.30;2.60;;;;;;;35.42;27.30;100219.77;117301;1186;22617;-62
2022/07/25 09:23:32;;;;;;;4.70;2.80;;;;;;;35.39;28.48;100217.34;117018;1189;22938;-61
2022/07/25 09:26:12;;;;;;;4.60;1.90;;;;;;;35.59;28.08;100212.45;117036;1188;22622;-63
2022/07/25 09:28:47;;;;;;;6.90;1.80;;;;;;;35.74;27.27;100212.33;117023;1188;21867;-64
2022/07/25 09:31:15;;;;;;;4.70;1.80;;;;;;;35.72;26.85;100209.23;117158;1183;22020;-65
2022/07/25 09:33:46;;;;;;;5.20;1.60;;;;;;;35.57;25.65;100211.84;117245;1187;23526;-60
2022/07/25 09:36:13;;;;;;;7.80;1.70;;;;;;;35.56;26.55;100208.38;117230;1188;21877;-60
2022/07/25 09:38:53;;;;;;;4.70;1.60;;;;;;;35.63;26.66;100205.64;117129;1188;24288;-60
2022/07/25 09:41:21;;;;;;;10.60;2.40;;;;;;;35.68;26.89;100209.93;117033;1186;21848;-62
2022/07/25 09:43:48;;;;;;;2.70;1.40;;;;;;;35.86;26.75;100203.36;117335;1185;21857;-63
2022/07/25 09:46:15;;;;;;;3.80;1.30;;;;;;;35.87;26.05;100203.17;117059;1187;24234;-64
2022/07/25 09:48:44;;;;;;;2.30;1.30;;;;;;;35.88;25.26;100203.06;117057;1189;22978;-64
2022/07/25 09:51:12;;;;;;;1.80;1.00;;;;;;;35.89;25.62;100199.02;117154;1189;22872;-64
2022/07/25 09:53:39;;;;;;;3.40;1.40;;;;;;;35.98;25.87;100199.36;117093;1188;21872;-63
2022/07/25 09:56:07;;;;;;;7.30;1.60;;;;;;;36.24;25.37;100199.20;117042;1182;21855;-61
2022/07/25 09:58:34;;;;;;;6.50;1.10;;;;;;;36.37;24.43;100198.52;117147;1187;21970;-60
2022/07/25 10:01:04;;;;;;;15.20;1.70;;;;;;;36.41;24.27;100198.04;117100;1189;22880;-61
2022/07/25 10:03:50;;;;;;;3.50;1.20;;;;;;;36.43;24.48;100196.50;117014;1188;21855;-59
2022/07/25 10:06:27;;;;;;;13.50;2.20;;;;;;;36.54;24.02;100195.58;117065;1189;22862;-59
2022/07/25 10:08:54;;;;;;;3.50;1.20;;;;;;;36.62;24.03;100197.71;117039;1188;22084;-61
2022/07/25 10:11:22;;;;;;;4.00;1.50;;;;;;;36.66;23.33;100200.70;116751;1186;21881;-62
2022/07/25 10:13:51;;;;;;;1.90;0.90;;;;;;;36.65;23.02;100204.23;117018;1182;21917;-60
2022/07/25 10:16:23;;;;;;;5.10;1.20;;;;;;;36.65;23.31;100203.85;117269;1186;22323;-59
2022/07/25 10:18:55;;;;;;;1.90;1.10;;;;;;;36.78;24.14;100207.48;117208;1188;21867;-62
2022/07/25 10:21:23;;;;;;;3.00;1.00;;;;;;;36.94;24.15;100198.86;117053;1189;22933;-60
2022/07/25 10:23:57;;;;;;;2.50;1.00;;;;;;;37.12;24.39;100191.17;117127;1182;23503;-59
2022/07/25 10:26:25;;;;;;;5.50;1.20;;;;;;;37.27;23.74;100192.19;117087;1188;23638;-61
2022/07/25 10:28:57;;;;;;;3.50;1.50;;;;;;;37.22;23.29;100196.84;117189;1189;22722;-59
2022/07/25 10:31:32;;;;;;;3.00;1.40;;;;;;;37.23;23.31;100191.44;117143;1186;22915;-59
2022/07/25 10:34:01;;;;;;;2.10;1.00;;;;;;;37.31;23.04;100192.77;116985;1187;21848;-59
2022/07/25 10:37:09;;;;;;;5.20;1.40;;;;;;;37.19;22.29;100192.59;117062;1186;22956;-60
2022/07/25 10:39:37;;;;;;;2.20;1.20;;;;;;;37.07;23.02;100190.72;116726;1191;21859;-61
2022/07/25 10:42:05;;;;;;;3.80;1.20;;;;;;;37.11;23.18;100186.95;117004;1189;21849;-60
2022/07/25 10:44:47;;;;;;;7.90;1.80;;;;;;;37.16;23.10;100182.02;117164;1188;22840;-60
2022/07/25 10:47:15;;;;;;;3.40;1.30;;;;;;;37.19;22.84;100181.70;117103;1186;23016;-61
2022/07/25 10:49:45;;;;;;;2.20;1.20;;;;;;;37.11;22.65;100182.91;117035;1188;21885;-61
2022/07/25 10:52:31;;;;;;;6.70;1.60;;;;;;;36.98;22.44;100174.61;117105;1186;23685;-61
2022/07/25 10:55:00;;;;;;;6.20;1.40;;;;;;;36.87;22.50;100169.60;117171;1182;24182;-62
2022/07/25 10:57:28;;;;;;;7.40;1.70;;;;;;;36.74;22.53;100170.15;117136;1187;21858;-62
2022/07/25 11:00:05;;;;;;;26.10;3.40;;;;;;;36.72;23.15;100163.90;116967;1186;21851;-60
2022/07/25 11:02:33;;;;;;;12.00;1.90;;;;;;;36.65;22.95;100164.94;117036;1183;21860;-62
2022/07/25 11:05:01;;;;;;;4.40;1.40;;;;;;;36.63;23.21;100169.21;117121;1187;21868;-63
2022/07/25 11:07:34;;;;;;;1.10;1.00;;;;;;;36.50;23.27;100169.16;116986;1188;21856;-61
2022/07/25 11:10:04;;;;;;;3.50;1.10;;;;;;;36.34;23.50;100167.91;117066;1187;22928;-62
2022/07/25 11:12:31;;;;;;;3.70;1.20;;;;;;;36.25;23.46;100163.89;117082;1187;21861;-60
2022/07/25 11:15:03;;;;;;;3.00;1.40;;;;;;;36.23;23.54;100164.11;116901;1188;21860;-62
2022/07/25 11:17:31;;;;;;;3.50;1.10;;;;;;;36.37;23.66;100163.68;116940;1187;21962;-60
2022/07/25 11:20:04;;;;;;;2.10;1.00;;;;;;;36.47;23.14;100166.84;117163;1189;21953;-60
2022/07/25 11:22:31;;;;;;;3.00;1.00;;;;;;;36.45;22.56;100167.45;116978;1187;23474;-62